createdAt,value
2018-06-10T00:01:20.646Z,17.80
2018-06-10T00:03:50.163Z,17.75
2018-06-10T00:06:19.129Z,17.75
2018-06-10T00:08:47.859Z,17.74
2018-06-10T00:11:16.531Z,17.58
2018-06-10T00:13:46.714Z,17.48
2018-06-10T00:16:15.581Z,17.43
2018-06-10T00:18:44.634Z,17.42
2018-06-10T00:21:13.139Z,17.47
2018-06-10T00:23:42.026Z,17.47
2018-06-10T00:26:10.809Z,17.47
2018-06-10T00:28:44.635Z,17.46
2018-06-10T00:31:13.567Z,17.46
2018-06-10T00:33:42.185Z,17.44
2018-06-10T00:36:10.983Z,17.41
2018-06-10T00:38:40.177Z,17.40
2018-06-10T00:41:09.282Z,17.34
2018-06-10T00:43:38.077Z,17.31
2018-06-10T00:46:07.075Z,17.27
2018-06-10T00:48:36.142Z,17.25
2018-06-10T00:51:05.316Z,17.19
2018-06-10T00:53:34.613Z,17.10
2018-06-10T00:56:13.553Z,17.00
2018-06-10T00:58:42.213Z,16.95
2018-06-10T01:01:10.992Z,16.91
2018-06-10T01:03:40.214Z,16.92
2018-06-10T01:06:09.059Z,16.90
2018-06-10T01:08:37.882Z,16.85
2018-06-10T01:11:06.674Z,16.70
2018-06-10T01:13:35.240Z,16.67
2018-06-10T01:16:04.377Z,16.65
2018-06-10T01:18:33.069Z,16.70
2018-06-10T01:21:01.846Z,16.78
2018-06-10T01:23:30.792Z,16.76
2018-06-10T01:25:59.520Z,16.72
2018-06-10T01:28:29.134Z,16.65
2018-06-10T01:30:59.166Z,16.63
2018-06-10T01:33:27.995Z,16.62
2018-06-10T01:35:56.603Z,16.56
2018-06-10T01:38:25.542Z,16.54
2018-06-10T01:40:54.253Z,16.57
2018-06-10T01:43:22.906Z,16.57
2018-06-10T01:45:51.750Z,16.58
2018-06-10T01:48:20.387Z,16.61
2018-06-10T01:50:49.193Z,16.65
2018-06-10T01:53:18.048Z,16.65
2018-06-10T01:55:48.150Z,16.60
2018-06-10T01:58:17.435Z,16.59
2018-06-10T02:00:46.394Z,16.61
2018-06-10T02:03:15.773Z,16.63
2018-06-10T02:05:44.344Z,16.68
2018-06-10T02:08:13.038Z,16.65
2018-06-10T02:10:42.001Z,16.58
2018-06-10T02:13:10.699Z,16.54
2018-06-10T02:15:39.550Z,16.56
2018-06-10T02:18:08.340Z,16.54
2018-06-10T02:20:37.093Z,16.52
2018-06-10T02:23:06.384Z,16.51
2018-06-10T02:25:35.148Z,16.51
2018-06-10T02:28:03.856Z,16.51
2018-06-10T02:30:32.660Z,16.55
2018-06-10T02:33:01.388Z,16.58
2018-06-10T02:35:30.837Z,16.51
2018-06-10T02:37:59.435Z,16.43
2018-06-10T02:40:28.219Z,16.42
2018-06-10T02:42:57.000Z,16.27
2018-06-10T02:45:25.657Z,16.25
2018-06-10T02:47:54.280Z,16.21
2018-06-10T02:50:23.115Z,16.14
2018-06-10T02:52:52.569Z,16.13
2018-06-10T02:55:21.145Z,16.10
2018-06-10T02:57:49.785Z,16.01
2018-06-10T03:00:18.761Z,16.01
2018-06-10T03:02:48.211Z,15.96
2018-06-10T03:05:17.609Z,15.89
2018-06-10T03:07:46.939Z,15.84
2018-06-10T03:10:15.625Z,15.82
2018-06-10T03:12:44.296Z,15.78
2018-06-10T03:15:13.105Z,15.75
2018-06-10T03:17:42.539Z,15.75
2018-06-10T03:20:11.204Z,15.73
2018-06-10T03:22:39.854Z,15.72
2018-06-10T03:25:08.660Z,15.73
2018-06-10T03:27:37.551Z,15.75
2018-06-10T03:30:06.706Z,15.77
2018-06-10T03:32:35.569Z,15.78
2018-06-10T03:35:04.360Z,15.72
2018-06-10T03:37:33.541Z,15.67
2018-06-10T03:40:02.362Z,15.64
2018-06-10T03:42:31.885Z,15.65
2018-06-10T03:45:01.410Z,15.67
2018-06-10T03:47:30.282Z,15.71
2018-06-10T03:49:59.255Z,15.71
2018-06-10T03:52:28.785Z,15.73
2018-06-10T03:54:58.192Z,15.74
2018-06-10T03:57:26.801Z,15.78
2018-06-10T03:59:55.585Z,15.87
2018-06-10T04:02:24.718Z,15.93
2018-06-10T04:04:54.160Z,15.97
2018-06-10T04:07:24.116Z,16.02
2018-06-10T04:09:53.048Z,16.07
2018-06-10T04:12:21.876Z,16.14
2018-06-10T04:14:50.718Z,16.18
2018-06-10T04:17:19.438Z,16.28
2018-06-10T04:19:48.203Z,16.41
2018-06-10T04:22:17.483Z,16.50
2018-06-10T04:24:46.781Z,16.62
2018-06-10T04:27:15.434Z,16.69
2018-06-10T04:29:44.187Z,16.75
2018-06-10T04:32:13.051Z,16.90
2018-06-10T04:34:41.695Z,16.99
2018-06-10T04:37:10.476Z,17.03
2018-06-10T04:39:39.125Z,17.03
2018-06-10T04:42:08.476Z,17.09
2018-06-10T04:44:37.251Z,17.23
2018-06-10T04:47:05.966Z,17.43
2018-06-10T04:49:34.573Z,17.58
2018-06-10T04:52:03.211Z,17.76
2018-06-10T04:54:32.486Z,17.86
2018-06-10T04:57:01.206Z,17.91
2018-06-10T04:59:30.036Z,18.03
2018-06-10T05:01:58.809Z,18.13
2018-06-10T05:04:28.523Z,18.33
2018-06-10T05:06:57.309Z,18.39
2018-06-10T05:09:25.995Z,18.48
2018-06-10T05:11:55.258Z,18.64
2018-06-10T05:14:23.952Z,18.67
2018-06-10T05:16:52.765Z,18.87
2018-06-10T05:19:21.499Z,18.93
2018-06-10T05:21:50.139Z,19.09
2018-06-10T05:24:18.843Z,19.41
2018-06-10T05:26:47.599Z,19.90
2018-06-10T05:29:16.395Z,20.44
2018-06-10T05:31:45.075Z,21.00
2018-06-10T05:34:14.161Z,21.45
2018-06-10T05:36:43.005Z,21.95
2018-06-10T05:39:12.752Z,22.31
2018-06-10T05:41:41.487Z,22.75
2018-06-10T05:44:10.375Z,23.14
2018-06-10T05:46:39.292Z,23.70
2018-06-10T05:49:08.151Z,24.09
2018-06-10T05:51:36.840Z,24.36
2018-06-10T05:54:06.490Z,24.84
2018-06-10T05:56:35.392Z,24.96
2018-06-10T05:59:04.429Z,25.02
2018-06-10T06:01:33.566Z,25.37
2018-06-10T06:04:02.873Z,26.10
2018-06-10T06:06:32.023Z,26.57
2018-06-10T06:09:00.719Z,26.69
2018-06-10T06:11:29.561Z,26.63
2018-06-10T06:13:58.421Z,27.04
2018-06-10T06:16:27.073Z,27.61
2018-06-10T06:18:55.917Z,27.65
2018-06-10T06:21:25.389Z,28.22
2018-06-10T06:23:54.168Z,28.28
2018-06-10T06:26:22.970Z,28.50
2018-06-10T06:28:51.757Z,28.85
2018-06-10T06:31:20.555Z,29.36
2018-06-10T06:33:49.360Z,29.77
2018-06-10T06:36:18.065Z,30.08
2018-06-10T06:38:46.826Z,30.02
2018-06-10T06:41:15.515Z,29.56
2018-06-10T06:43:44.299Z,29.75
2018-06-10T06:46:13.061Z,30.22
2018-06-10T06:48:42.123Z,30.48
2018-06-10T06:51:10.956Z,31.25
2018-06-10T06:53:39.695Z,31.47
2018-06-10T06:56:08.384Z,31.94
2018-06-10T06:58:37.090Z,32.69
2018-06-10T07:01:06.192Z,32.46
2018-06-10T07:03:34.969Z,33.08
2018-06-10T07:06:03.706Z,33.30
2018-06-10T07:08:32.572Z,33.11
2018-06-10T07:11:01.167Z,32.80
2018-06-10T07:13:30.006Z,33.15
2018-06-10T07:15:58.813Z,33.56
2018-06-10T07:18:27.657Z,33.98
2018-06-10T07:20:56.276Z,33.09
2018-06-10T07:23:25.005Z,34.25
2018-06-10T07:25:54.583Z,34.29
2018-06-10T07:28:23.530Z,34.35
2018-06-10T07:30:52.419Z,34.42
2018-06-10T07:33:21.231Z,34.14
2018-06-10T07:35:51.075Z,34.82
2018-06-10T07:38:19.829Z,34.84
2018-06-10T07:40:48.871Z,35.47
2018-06-10T07:43:18.297Z,35.56
2018-06-10T07:45:47.398Z,35.30
2018-06-10T07:48:16.264Z,35.17
2018-06-10T07:50:45.039Z,35.58
2018-06-10T07:53:13.941Z,35.98
2018-06-10T07:55:43.342Z,36.04
2018-06-10T07:58:12.194Z,36.55
2018-06-10T08:00:41.825Z,35.59
2018-06-10T08:03:10.914Z,37.16
2018-06-10T08:05:39.756Z,38.83
2018-06-10T08:08:08.435Z,38.06
2018-06-10T08:10:37.625Z,39.20
2018-06-10T08:13:06.757Z,40.27
2018-06-10T08:15:35.675Z,40.08
2018-06-10T08:18:04.576Z,40.59
2018-06-10T08:20:33.587Z,40.88
2018-06-10T08:23:02.386Z,40.64
2018-06-10T08:25:31.883Z,39.62
2018-06-10T08:28:00.766Z,41.07
2018-06-10T08:30:29.502Z,40.63
2018-06-10T08:32:58.912Z,38.93
2018-06-10T08:35:27.707Z,37.69
2018-06-10T08:37:56.577Z,38.04
2018-06-10T08:40:25.441Z,37.77
2018-06-10T08:42:54.542Z,37.34
2018-06-10T08:45:24.945Z,35.40
2018-06-10T08:47:53.942Z,34.14
2018-06-10T08:50:22.723Z,33.71
2018-06-10T08:52:51.382Z,34.41
2018-06-10T08:55:20.170Z,33.33
2018-06-10T08:57:49.020Z,31.34
2018-06-10T09:00:17.822Z,30.60
2018-06-10T09:02:46.571Z,29.64
2018-06-10T09:05:15.384Z,30.14
2018-06-10T09:07:44.184Z,33.44
2018-06-10T09:10:13.067Z,35.59
2018-06-10T09:12:42.089Z,37.41
2018-06-10T09:15:13.831Z,38.66
2018-06-10T09:17:42.613Z,39.62
2018-06-10T09:20:11.790Z,41.25
2018-06-10T09:22:40.673Z,42.35
2018-06-10T09:25:09.346Z,43.40
2018-06-10T09:27:38.455Z,43.10
2018-06-10T09:30:07.952Z,43.90
2018-06-10T09:32:37.033Z,44.17
2018-06-10T09:35:06.098Z,43.26
2018-06-10T09:37:35.761Z,42.89
2018-06-10T09:40:04.785Z,40.50
2018-06-10T09:42:33.490Z,38.49
2018-06-10T09:45:02.282Z,36.50
2018-06-10T09:47:31.263Z,35.57
2018-06-10T09:50:00.019Z,37.78
2018-06-10T09:52:28.978Z,39.54
2018-06-10T09:54:58.058Z,41.20
2018-06-10T09:57:26.758Z,42.13
2018-06-10T09:59:55.556Z,41.17
2018-06-10T10:02:24.948Z,41.22
2018-06-10T10:04:53.988Z,41.53
2018-06-10T10:07:23.382Z,41.83
2018-06-10T10:09:52.818Z,42.08
2018-06-10T10:12:21.782Z,40.48
2018-06-10T10:14:50.833Z,39.53
2018-06-10T10:17:19.749Z,41.25
2018-06-10T10:19:48.463Z,41.35
2018-06-10T10:22:17.899Z,40.75
2018-06-10T10:24:46.741Z,38.84
2018-06-10T10:27:16.244Z,37.17
2018-06-10T10:29:46.347Z,37.39
2018-06-10T10:32:15.439Z,39.39
2018-06-10T10:34:44.588Z,42.29
2018-06-10T10:37:13.400Z,44.15
2018-06-10T10:39:42.305Z,45.16
2018-06-10T10:42:11.367Z,45.64
2018-06-10T10:44:40.267Z,45.23
2018-06-10T10:47:09.203Z,44.71
2018-06-10T10:49:38.037Z,43.14
2018-06-10T10:52:07.413Z,41.84
2018-06-10T10:54:36.586Z,40.68
2018-06-10T10:57:05.647Z,39.24
2018-06-10T10:59:34.553Z,38.79
2018-06-10T11:02:03.321Z,38.21
2018-06-10T11:04:32.339Z,37.33
2018-06-10T11:07:01.522Z,37.10
2018-06-10T11:09:30.620Z,37.17
2018-06-10T11:12:00.117Z,35.78
2018-06-10T11:14:29.243Z,35.47
2018-06-10T11:16:58.388Z,34.52
2018-06-10T11:19:27.833Z,34.75
2018-06-10T11:21:56.861Z,34.84
2018-06-10T11:24:27.833Z,34.68
2018-06-10T11:26:56.765Z,34.66
2018-06-10T11:29:25.743Z,33.89
2018-06-10T11:31:54.883Z,33.34
2018-06-10T11:34:23.946Z,32.87
2018-06-10T11:36:52.967Z,32.56
2018-06-10T11:39:25.827Z,32.41
2018-06-10T11:41:54.599Z,32.97
2018-06-10T11:44:23.484Z,33.34
2018-06-10T11:46:52.103Z,33.57
2018-06-10T11:49:21.106Z,33.81
2018-06-10T11:51:50.446Z,33.66
2018-06-10T11:54:19.423Z,33.83
2018-06-10T11:56:48.250Z,33.82
2018-06-10T11:59:17.287Z,33.52
2018-06-10T12:01:46.149Z,33.50
2018-06-10T12:04:15.069Z,33.43
2018-06-10T12:06:43.888Z,33.34
2018-06-10T12:09:13.096Z,33.24
2018-06-10T12:11:42.466Z,33.13
2018-06-10T12:14:11.297Z,32.96
2018-06-10T12:16:40.086Z,32.83
2018-06-10T12:19:09.111Z,32.64
2018-06-10T12:21:37.968Z,32.68
2018-06-10T12:24:06.688Z,32.61
2018-06-10T12:26:35.662Z,32.60
2018-06-10T12:29:04.493Z,32.28
2018-06-10T12:31:33.169Z,32.23
2018-06-10T12:34:02.062Z,32.17
2018-06-10T12:36:30.898Z,31.65
2018-06-10T12:38:59.656Z,31.43
2018-06-10T12:41:28.312Z,31.17
2018-06-10T12:43:57.052Z,31.45
2018-06-10T12:46:25.834Z,31.20
2018-06-10T12:48:54.911Z,31.37
2018-06-10T12:51:23.632Z,31.44
2018-06-10T12:53:52.238Z,31.09
2018-06-10T12:56:21.044Z,31.08
2018-06-10T12:58:49.857Z,31.28
2018-06-10T13:01:18.886Z,31.47
2018-06-10T13:03:47.840Z,31.44
2018-06-10T13:06:16.605Z,31.46
2018-06-10T13:08:45.376Z,31.33
2018-06-10T13:11:14.143Z,31.22
2018-06-10T13:13:43.188Z,31.16
2018-06-10T13:16:11.988Z,31.15
2018-06-10T13:18:41.243Z,30.93
2018-06-10T13:21:09.969Z,30.97
2018-06-10T13:23:38.697Z,31.22
2018-06-10T13:26:07.929Z,31.59
2018-06-10T13:28:36.869Z,31.70
2018-06-10T13:31:05.710Z,31.64
2018-06-10T13:33:34.634Z,31.57
2018-06-10T13:36:04.092Z,31.50
2018-06-10T13:38:33.154Z,31.47
2018-06-10T13:41:02.607Z,31.35
2018-06-10T13:43:31.540Z,31.24
2018-06-10T13:46:00.117Z,31.23
2018-06-10T13:48:32.340Z,31.02
2018-06-10T13:51:01.503Z,31.01
2018-06-10T13:53:30.060Z,31.18
2018-06-10T13:55:59.029Z,31.30
2018-06-10T13:58:27.851Z,31.24
2018-06-10T14:00:56.735Z,31.24
2018-06-10T14:03:25.584Z,31.25
2018-06-10T14:05:54.415Z,31.24
2018-06-10T14:08:23.238Z,30.93
2018-06-10T14:10:52.419Z,30.77
2018-06-10T14:13:21.294Z,30.81
2018-06-10T14:15:49.990Z,30.81
2018-06-10T14:18:18.995Z,30.99
2018-06-10T14:20:48.150Z,31.09
2018-06-10T14:23:17.590Z,30.93
2018-06-10T14:25:46.590Z,30.73
2018-06-10T14:28:15.608Z,30.52
2018-06-10T14:30:44.490Z,30.34
2018-06-10T14:33:13.437Z,30.19
2018-06-10T14:35:42.474Z,30.25
2018-06-10T14:38:11.357Z,30.38
2018-06-10T14:40:40.172Z,30.56
2018-06-10T14:43:09.054Z,30.63
2018-06-10T14:45:38.798Z,30.71
2018-06-10T14:48:07.630Z,30.92
2018-06-10T14:50:36.519Z,30.98
2018-06-10T14:53:05.365Z,31.00
2018-06-10T14:55:34.364Z,30.77
2018-06-10T14:58:03.450Z,30.74
2018-06-10T15:00:33.405Z,30.84
2018-06-10T15:03:03.141Z,30.91
2018-06-10T15:05:31.893Z,30.82
2018-06-10T15:08:01.540Z,30.68
2018-06-10T15:10:30.833Z,30.45
2018-06-10T15:12:59.804Z,30.34
2018-06-10T15:15:28.581Z,30.21
2018-06-10T15:17:57.438Z,30.18
2018-06-10T15:20:26.484Z,30.06
2018-06-10T15:22:55.843Z,29.92
2018-06-10T15:25:25.089Z,29.96
2018-06-10T15:27:54.383Z,30.02
2018-06-10T15:30:23.675Z,30.08
2018-06-10T15:32:52.825Z,29.97
2018-06-10T15:35:21.555Z,29.60
2018-06-10T15:37:50.294Z,28.94
2018-06-10T15:40:19.349Z,28.16
2018-06-10T15:42:48.639Z,27.33
2018-06-10T15:45:18.044Z,26.84
2018-06-10T15:47:47.303Z,26.26
2018-06-10T15:50:16.320Z,26.13
2018-06-10T15:52:45.159Z,25.84
2018-06-10T15:55:14.770Z,25.63
2018-06-10T15:57:43.636Z,25.39
2018-06-10T16:00:12.494Z,25.24
2018-06-10T16:02:41.476Z,24.72
2018-06-10T16:05:10.336Z,24.32
2018-06-10T16:07:39.229Z,23.46
2018-06-10T16:10:08.220Z,22.79
2018-06-10T16:12:37.067Z,22.36
2018-06-10T16:15:06.712Z,21.79
2018-06-10T16:17:35.694Z,21.15
2018-06-10T16:20:04.784Z,21.01
2018-06-10T16:22:34.353Z,21.02
2018-06-10T16:25:02.975Z,21.09
2018-06-10T16:27:31.699Z,21.39
2018-06-10T16:30:00.849Z,21.68
2018-06-10T16:32:29.825Z,21.85
2018-06-10T16:34:58.795Z,22.02
2018-06-10T16:37:27.635Z,22.32
2018-06-10T16:39:56.845Z,22.53
2018-06-10T16:42:26.055Z,22.80
2018-06-10T16:44:55.012Z,22.97
2018-06-10T16:47:23.765Z,22.89
2018-06-10T16:49:52.784Z,22.74
2018-06-10T16:52:22.089Z,22.63
2018-06-10T16:54:50.808Z,22.52
2018-06-10T16:57:20.465Z,22.33
2018-06-10T16:59:49.607Z,22.15
2018-06-10T17:02:18.816Z,22.19
2018-06-10T17:04:48.185Z,22.06
2018-06-10T17:07:18.164Z,21.98
2018-06-10T17:09:47.464Z,22.00
2018-06-10T17:12:17.082Z,21.96
2018-06-10T17:14:45.981Z,21.94
2018-06-10T17:17:16.129Z,21.97
2018-06-10T17:19:45.264Z,22.00
2018-06-10T17:22:14.280Z,22.06
2018-06-10T17:24:43.478Z,22.05
2018-06-10T17:27:12.208Z,22.01
2018-06-10T17:29:41.199Z,22.15
2018-06-10T17:32:10.044Z,22.26
2018-06-10T17:34:39.055Z,22.31
2018-06-10T17:37:07.934Z,22.34
2018-06-10T17:39:37.151Z,22.37
2018-06-10T17:42:06.374Z,22.35
2018-06-10T17:44:35.590Z,22.33
2018-06-10T17:47:04.736Z,22.34
2018-06-10T17:49:33.754Z,22.34
2018-06-10T17:52:02.610Z,22.30
2018-06-10T17:54:31.537Z,22.25
2018-06-10T17:57:00.675Z,22.24
2018-06-10T17:59:29.592Z,22.25
2018-06-10T18:01:58.409Z,22.27
2018-06-10T18:04:27.474Z,22.22
2018-06-10T18:06:56.985Z,22.02
2018-06-10T18:09:26.060Z,21.85
2018-06-10T18:11:55.150Z,21.74
2018-06-10T18:14:24.060Z,21.62
2018-06-10T18:16:52.840Z,21.53
2018-06-10T18:19:21.918Z,21.47
2018-06-10T18:21:50.695Z,21.42
2018-06-10T18:24:20.551Z,21.37
2018-06-10T18:26:49.440Z,21.18
2018-06-10T18:29:18.691Z,20.99
2018-06-10T18:31:47.866Z,20.82
2018-06-10T18:34:18.581Z,20.81
2018-06-10T18:36:47.464Z,20.63
2018-06-10T18:39:17.509Z,20.44
2018-06-10T18:41:46.570Z,20.42
2018-06-10T18:44:15.605Z,20.37
2018-06-10T18:46:45.279Z,20.41
2018-06-10T18:49:14.420Z,20.33
2018-06-10T18:51:43.498Z,20.25
2018-06-10T18:54:13.055Z,20.18
2018-06-10T18:56:42.093Z,20.05
2018-06-10T18:59:11.307Z,19.97
2018-06-10T19:01:40.479Z,19.82
2018-06-10T19:04:09.669Z,19.78
2018-06-10T19:06:38.960Z,19.75
2018-06-10T19:09:10.263Z,19.77
2018-06-10T19:11:39.413Z,19.75
2018-06-10T19:14:08.632Z,19.74
2018-06-10T19:16:37.662Z,19.71
2018-06-10T19:19:06.662Z,19.71
2018-06-10T19:21:35.460Z,19.57
2018-06-10T19:24:05.411Z,19.46
2018-06-10T19:26:35.242Z,19.31
2018-06-10T19:29:04.214Z,19.22
2018-06-10T19:31:33.278Z,19.13
2018-06-10T19:34:02.083Z,19.11
2018-06-10T19:36:31.133Z,19.15
2018-06-10T19:39:00.068Z,19.13
2018-06-10T19:41:29.177Z,19.12
2018-06-10T19:43:58.266Z,19.13
2018-06-10T19:46:27.508Z,18.99
2018-06-10T19:48:57.526Z,18.95
2018-06-10T19:51:27.036Z,18.95
2018-06-10T19:53:56.130Z,18.96
2018-06-10T19:56:25.545Z,18.81
2018-06-10T19:58:54.590Z,18.83
2018-06-10T20:01:23.937Z,18.85
2018-06-10T20:03:52.680Z,18.82
2018-06-10T20:06:21.497Z,18.77
2018-06-10T20:08:50.519Z,18.56
2018-06-10T20:11:19.756Z,18.53
2018-06-10T20:13:48.791Z,18.52
2018-06-10T20:16:18.364Z,18.58
2018-06-10T20:18:48.352Z,18.60
2018-06-10T20:21:17.565Z,18.65
2018-06-10T20:23:46.433Z,18.59
2018-06-10T20:26:15.491Z,18.60
2018-06-10T20:28:44.352Z,18.64
2018-06-10T20:31:13.482Z,18.63
2018-06-10T20:33:42.590Z,18.57
2018-06-10T20:36:11.959Z,18.48
2018-06-10T20:38:41.046Z,18.51
2018-06-10T20:41:10.275Z,18.51
2018-06-10T20:43:39.422Z,18.45
2018-06-10T20:46:09.015Z,18.46
2018-06-10T20:48:38.025Z,18.48
2018-06-10T20:51:06.793Z,18.52
2018-06-10T20:53:35.675Z,18.53
2018-06-10T20:56:04.560Z,18.49
2018-06-10T20:58:33.561Z,18.46
2018-06-10T21:01:03.087Z,18.39
2018-06-10T21:03:32.416Z,18.31
2018-06-10T21:06:01.499Z,18.29
2018-06-10T21:08:30.751Z,18.28
2018-06-10T21:11:00.407Z,18.24
2018-06-10T21:13:30.163Z,18.19
2018-06-10T21:15:59.066Z,18.11
2018-06-10T21:18:28.059Z,18.03
2018-06-10T21:20:57.071Z,17.94
2018-06-10T21:23:26.516Z,17.94
2018-06-10T21:25:55.385Z,17.91
2018-06-10T21:28:24.286Z,17.86
2018-06-10T21:30:53.717Z,17.80
2018-06-10T21:33:22.942Z,17.70
2018-06-10T21:35:52.160Z,17.68
2018-06-10T21:38:21.096Z,17.66
2018-06-10T21:40:50.706Z,17.65
2018-06-10T21:43:19.626Z,17.63
2018-06-10T21:45:48.317Z,17.66
2018-06-10T21:48:17.306Z,17.66
2018-06-10T21:50:46.714Z,17.65
2018-06-10T21:53:15.947Z,17.71
2018-06-10T21:55:44.614Z,17.71
2018-06-10T21:58:13.698Z,17.67
2018-06-10T22:00:42.690Z,17.67
2018-06-10T22:03:11.468Z,17.70
2018-06-10T22:05:40.311Z,17.65
2018-06-10T22:08:09.261Z,17.58
2018-06-10T22:10:37.971Z,17.52
2018-06-10T22:13:06.859Z,17.49
2018-06-10T22:15:35.611Z,17.46
2018-06-10T22:18:05.141Z,17.43
2018-06-10T22:20:33.826Z,17.39
2018-06-10T22:23:02.699Z,17.36
2018-06-10T22:25:31.553Z,17.42
2018-06-10T22:28:00.138Z,17.38
2018-06-10T22:30:28.948Z,17.32
2018-06-10T22:32:58.606Z,17.34
2018-06-10T22:35:27.874Z,17.40
2018-06-10T22:37:56.637Z,17.36
2018-06-10T22:40:25.386Z,17.34
2018-06-10T22:42:54.451Z,17.32
2018-06-10T22:45:23.307Z,17.34
2018-06-10T22:47:52.005Z,17.19
2018-06-10T22:50:22.216Z,17.15
2018-06-10T22:53:00.548Z,17.12
2018-06-10T22:55:30.572Z,17.13
2018-06-10T22:57:59.777Z,17.13
2018-06-10T23:00:30.098Z,17.13
2018-06-10T23:03:00.815Z,17.13
2018-06-10T23:05:33.337Z,16.95
2018-06-10T23:08:02.571Z,16.89
2018-06-10T23:10:33.628Z,16.90
2018-06-10T23:13:03.231Z,16.92
2018-06-10T23:15:33.600Z,16.87
2018-06-10T23:18:06.211Z,16.96
2018-06-10T23:20:38.165Z,16.95
2018-06-10T23:23:06.919Z,16.92
2018-06-10T23:25:36.276Z,16.83
2018-06-10T23:28:04.972Z,16.87
2018-06-10T23:30:34.020Z,16.91
2018-06-10T23:33:02.691Z,16.87
2018-06-10T23:35:31.480Z,16.88
2018-06-10T23:38:00.561Z,16.79
2018-06-10T23:40:29.797Z,16.72
2018-06-10T23:42:59.191Z,16.68
2018-06-10T23:45:28.441Z,16.67
2018-06-10T23:47:57.235Z,16.66
2018-06-10T23:50:25.815Z,16.72
2018-06-10T23:52:54.634Z,16.76
2018-06-10T23:55:23.370Z,16.71
2018-06-10T23:57:52.441Z,16.59
